Time;durP1;ratioP1;P1;durP2;ratioP2;P2;SDS_P1;SDS_P2;PMS_P1;PMS_P2;Temp;Humidity;BMP_temperature;BMP_pressure;BME280_temperature;BME280_humidity;BME280_pressure;Samples;Min_cycle;Max_cycle;Signal;HPM_P1;HPM_P2
2022/09/21 00:02:23;;;;;;;18.38;5.38;;;;;;;8.60;88.91;102298.50;4975583;28;20026;-70
2022/09/21 00:04:49;;;;;;;13.63;5.20;;;;;;;8.52;89.08;102301.75;4972492;28;20034;-69
2022/09/21 00:07:15;;;;;;;14.05;5.82;;;;;;;8.53;89.22;102302.59;4988716;28;20038;-70
2022/09/21 00:09:40;;;;;;;16.60;5.30;;;;;;;8.58;88.83;102305.84;4988611;28;20072;-70
2022/09/21 00:12:05;;;;;;;13.30;4.60;;;;;;;8.48;88.69;102300.25;4973517;28;20069;-70
2022/09/21 00:14:31;;;;;;;13.43;5.10;;;;;;;8.46;89.47;102306.72;4988640;28;20034;-70
2022/09/21 00:16:56;;;;;;;12.85;5.45;;;;;;;8.54;89.30;102309.72;4973750;28;20166;-70
2022/09/21 00:19:21;;;;;;;16.77;6.55;;;;;;;8.52;89.21;102306.28;4972606;28;20173;-70
2022/09/21 00:21:47;;;;;;;13.77;5.00;;;;;;;8.52;89.08;102300.88;4988750;28;20097;-70
2022/09/21 00:24:13;;;;;;;19.60;5.60;;;;;;;8.58;89.47;102316.66;4985307;28;20062;-70
2022/09/21 00:26:38;;;;;;;19.08;6.07;;;;;;;8.54;89.01;102309.72;4953677;29;20027;-70
2022/09/21 00:29:04;;;;;;;22.35;6.20;;;;;;;8.46;89.81;102306.72;4972224;28;20109;-70
2022/09/21 00:31:30;;;;;;;19.67;5.13;;;;;;;8.34;90.50;102303.88;4988619;28;20435;-70
2022/09/21 00:33:58;;;;;;;22.30;7.43;;;;;;;8.33;90.16;102315.66;4973507;28;20027;-70
2022/09/21 00:36:25;;;;;;;11.18;4.70;;;;;;;8.05;91.69;102318.56;4988493;28;20022;-70
2022/09/21 00:38:53;;;;;;;23.08;6.97;;;;;;;8.11;92.58;102323.53;4973517;28;20030;-70
2022/09/21 00:41:19;;;;;;;16.65;6.10;;;;;;;8.17;91.99;102309.63;4988332;28;20038;-70
2022/09/21 00:43:48;;;;;;;18.73;5.50;;;;;;;8.28;90.89;102320.53;4988125;28;20069;-70
2022/09/21 00:46:26;;;;;;;12.25;5.07;;;;;;;8.24;90.63;102312.75;4973187;28;20019;-70
2022/09/21 00:48:52;;;;;;;10.45;5.00;;;;;;;8.25;90.42;102314.47;4988246;28;20033;-68
2022/09/21 00:51:18;;;;;;;13.02;5.30;;;;;;;8.24;90.22;102312.75;4971800;28;20539;-68
2022/09/21 00:53:44;;;;;;;16.45;5.57;;;;;;;8.30;90.35;102313.19;4973173;28;20522;-68
2022/09/21 00:56:11;;;;;;;13.90;5.40;;;;;;;8.34;91.07;102309.28;4973053;28;20026;-68
2022/09/21 00:58:47;;;;;;;15.10;5.75;;;;;;;8.28;91.50;102308.84;4988424;28;20031;-68
2022/09/21 01:01:15;;;;;;;18.88;5.60;;;;;;;8.29;90.75;102316.84;4987623;28;20026;-68
2022/09/21 01:03:44;;;;;;;10.80;5.20;;;;;;;8.24;90.57;102313.63;4973044;28;20030;-68
2022/09/21 01:06:11;;;;;;;14.55;5.50;;;;;;;8.07;90.16;102316.63;4987954;28;20026;-68
2022/09/21 01:08:38;;;;;;;12.27;4.85;;;;;;;7.76;91.81;102324.13;4973008;28;20043;-68
2022/09/21 01:11:17;;;;;;;10.85;5.00;;;;;;;7.61;93.16;102326.03;4987604;28;20065;-68
2022/09/21 01:14:13;;;;;;;16.33;5.30;;;;;;;7.73;94.35;102326.16;4988017;28;20026;-68
2022/09/21 01:16:52;;;;;;;18.63;6.15;;;;;;;7.89;93.73;102330.41;4968071;28;20082;-68
2022/09/21 01:19:38;;;;;;;13.10;5.25;;;;;;;8.09;92.31;102326.34;4965154;28;20062;-69
2022/09/21 01:22:34;;;;;;;16.23;5.50;;;;;;;7.94;91.17;102334.63;4988072;28;20118;-68
2022/09/21 01:25:26;;;;;;;16.40;5.43;;;;;;;7.94;91.20;102337.31;4987799;28;20038;-68
2022/09/21 01:28:10;;;;;;;;;;;;;;;7.99;90.75;102335.16;4973349;28;20037;-68
2022/09/21 01:30:37;;;;;;;15.48;5.55;;;;;;;8.07;90.54;102332.81;4987084;28;20009;-68
2022/09/21 01:33:16;;;;;;;15.98;5.82;;;;;;;8.11;90.93;102331.63;4972466;28;20027;-68
2022/09/21 01:35:48;;;;;;;15.68;5.38;;;;;;;8.12;91.15;102330.66;4971896;28;20053;-68
2022/09/21 01:38:33;;;;;;;17.52;5.22;;;;;;;8.11;91.51;102331.63;4972826;28;20054;-68
2022/09/21 01:41:03;;;;;;;27.38;5.55;;;;;;;8.06;90.95;102337.34;4972463;28;20027;-68
2022/09/21 01:43:33;;;;;;;17.38;5.22;;;;;;;7.76;90.95;102329.53;4972574;28;20038;-68
2022/09/21 01:46:02;;;;;;;14.65;5.22;;;;;;;7.68;91.18;102337.25;4971141;28;20162;-68
2022/09/21 01:48:34;;;;;;;16.95;5.70;;;;;;;7.88;91.52;102339.47;4987245;28;20031;-69
2022/09/21 01:51:01;;;;;;;;;;;;;;;7.94;91.72;102338.19;4972581;28;20494;-68
2022/09/21 01:53:45;;;;;;;21.35;6.45;;;;;;;7.99;93.17;102335.16;4968155;28;19914;-68
2022/09/21 01:56:20;;;;;;;19.40;6.03;;;;;;;7.94;91.91;102335.47;4953112;28;20035;-68
2022/09/21 01:58:53;;;;;;;18.00;5.35;;;;;;;7.91;91.46;102332.16;4983485;28;20487;-68
2022/09/21 02:01:21;;;;;;;16.88;5.22;;;;;;;7.65;92.25;102326.69;4987061;28;20094;-68
2022/09/21 02:03:54;;;;;;;15.48;5.90;;;;;;;7.75;92.16;102338.56;4972617;28;20134;-68
2022/09/21 02:06:19;;;;;;;19.23;6.18;;;;;;;7.82;92.52;102329.13;4972502;28;20065;-68
2022/09/21 02:08:45;;;;;;;22.02;6.32;;;;;;;7.79;92.07;102337.41;4970926;28;20480;-68
2022/09/21 02:11:12;;;;;;;16.75;5.38;;;;;;;7.69;91.32;102333.59;4987027;28;20034;-68
2022/09/21 02:13:44;;;;;;;10.07;4.57;;;;;;;7.55;91.53;102341.75;4971861;28;20085;-68
2022/09/21 02:16:11;;;;;;;11.70;5.10;;;;;;;7.54;91.68;102334.63;4971965;28;20027;-68
2022/09/21 02:19:14;;;;;;;15.18;4.93;;;;;;;7.54;91.25;102331.94;4987100;28;20031;-68
2022/09/21 02:22:05;;;;;;;15.95;5.75;;;;;;;7.57;91.53;102329.03;4967934;28;20089;-69
2022/09/21 02:24:43;;;;;;;21.95;5.85;;;;;;;7.60;92.17;102331.53;4972232;28;20049;-69
2022/09/21 02:27:36;;;;;;;15.38;5.88;;;;;;;7.57;91.31;102339.84;4987482;28;20034;-69
2022/09/21 02:30:12;;;;;;;14.95;5.97;;;;;;;7.41;90.83;102339.97;4973534;28;20026;-69
2022/09/21 02:33:10;;;;;;;20.85;5.95;;;;;;;7.39;92.09;102341.06;4975593;28;20082;-69
2022/09/21 02:35:54;;;;;;;18.70;6.35;;;;;;;7.30;92.21;102343.41;4975528;28;20030;-68
2022/09/21 02:38:32;;;;;;;18.25;5.13;;;;;;;7.37;92.20;102345.66;4975693;28;20030;-69
2022/09/21 02:41:12;;;;;;;15.00;6.05;;;;;;;7.34;92.21;102339.50;4987023;28;20038;-69
2022/09/21 02:43:49;;;;;;;17.00;6.00;;;;;;;7.27;91.90;102338.19;4994618;22;20046;-71
2022/09/21 02:46:22;;;;;;;20.45;6.00;;;;;;;7.33;92.25;102348.56;5013928;28;20058;-71
2022/09/21 02:48:54;;;;;;;21.92;5.93;;;;;;;7.38;92.23;102344.72;5014178;28;20104;-71
2022/09/21 02:51:29;;;;;;;21.92;5.82;;;;;;;7.17;92.09;102345.16;5010459;28;20026;-71
2022/09/21 02:53:57;;;;;;;21.63;6.03;;;;;;;7.22;91.90;102356.47;4994688;28;20061;-71
2022/09/21 02:56:25;;;;;;;12.55;5.13;;;;;;;7.19;91.52;102351.31;5003484;28;20022;-70
2022/09/21 02:58:54;;;;;;;12.15;4.45;;;;;;;7.10;90.94;102346.50;5001881;28;20097;-70
2022/09/21 03:01:21;;;;;;;12.30;5.63;;;;;;;7.16;91.44;102351.50;4994431;28;20033;-70
2022/09/21 03:03:47;;;;;;;11.52;4.72;;;;;;;7.11;91.95;102359.03;5011167;28;20122;-71
2022/09/21 03:06:13;;;;;;;12.10;5.20;;;;;;;7.17;91.69;102350.56;4995869;28;20045;-71
2022/09/21 03:08:39;;;;;;;15.50;6.15;;;;;;;7.14;91.18;102350.72;4995209;28;20045;-71
2022/09/21 03:11:05;;;;;;;12.38;5.68;;;;;;;6.97;91.46;102353.66;4995566;28;20037;-71
2022/09/21 03:13:31;;;;;;;14.80;5.28;;;;;;;6.92;91.84;102353.97;4999621;28;20038;-70
2022/09/21 03:16:06;;;;;;;14.68;5.78;;;;;;;6.75;93.09;102352.31;4994916;28;20057;-71
2022/09/21 03:18:34;;;;;;;13.63;5.47;;;;;;;6.83;92.13;102359.06;5002084;28;20038;-70
2022/09/21 03:21:02;;;;;;;17.48;5.28;;;;;;;6.84;92.40;102366.16;4997027;28;20180;-70
2022/09/21 03:23:27;;;;;;;13.60;4.95;;;;;;;6.84;92.85;102367.03;4994377;28;20027;-72
2022/09/21 03:25:53;;;;;;;13.88;5.28;;;;;;;6.94;92.00;102361.94;5008579;28;20033;-71
2022/09/21 03:28:20;;;;;;;14.57;5.43;;;;;;;6.93;91.63;102365.59;4994826;28;20029;-71
2022/09/21 03:30:48;;;;;;;15.13;4.72;;;;;;;6.92;91.93;102363.88;4993525;28;20022;-71
2022/09/21 03:33:13;;;;;;;14.20;5.15;;;;;;;6.98;91.98;102368.88;4993668;28;20030;-71
2022/09/21 03:35:39;;;;;;;17.58;5.40;;;;;;;7.03;91.90;102364.88;4993635;28;20026;-71
2022/09/21 03:38:04;;;;;;;16.90;5.35;;;;;;;7.03;91.35;102366.72;4994749;28;20061;-71
2022/09/21 03:40:30;;;;;;;13.73;5.05;;;;;;;7.08;91.41;102359.22;4994487;28;20037;-71
2022/09/21 03:42:56;;;;;;;18.95;6.22;;;;;;;7.02;93.13;102360.47;4997994;28;20085;-71
2022/09/21 03:45:21;;;;;;;17.58;6.00;;;;;;;7.06;92.95;102366.53;4994241;28;20033;-71
2022/09/21 03:47:47;;;;;;;17.55;6.72;;;;;;;7.05;92.26;102364.81;4994022;28;20058;-71
2022/09/21 03:50:13;;;;;;;16.55;5.85;;;;;;;7.03;91.85;102366.72;5000544;28;20386;-71
2022/09/21 03:52:38;;;;;;;12.27;5.55;;;;;;;6.98;92.47;102366.16;4999101;28;20033;-71
2022/09/21 03:55:06;;;;;;;15.88;5.55;;;;;;;6.61;93.68;102376.56;5003869;28;20039;-71
2022/09/21 03:57:33;;;;;;;13.15;5.45;;;;;;;6.67;93.16;102365.41;4999462;28;20034;-71
2022/09/21 03:59:59;;;;;;;18.95;6.15;;;;;;;6.72;93.54;102374.06;5002294;28;20471;-71
2022/09/21 04:02:24;;;;;;;18.95;5.90;;;;;;;6.74;92.73;102377.53;5006579;28;20021;-71
2022/09/21 04:04:50;;;;;;;15.85;6.88;;;;;;;6.68;94.26;102377.91;5000725;28;20030;-71
2022/09/21 04:07:15;;;;;;;20.38;5.93;;;;;;;6.79;93.43;102374.56;5002047;28;20046;-71
2022/09/21 04:09:41;;;;;;;15.38;5.22;;;;;;;6.66;94.40;102374.44;5004715;28;20022;-71
2022/09/21 04:12:06;;;;;;;21.73;6.93;;;;;;;6.88;95.03;102379.34;4995647;28;20066;-71
2022/09/21 04:14:34;;;;;;;14.90;6.05;;;;;;;7.09;94.61;102377.09;4994919;28;20040;-71
2022/09/21 04:17:02;;;;;;;15.82;6.00;;;;;;;6.89;94.85;102370.28;4993794;28;20105;-71
2022/09/21 04:19:27;;;;;;;31.73;11.35;;;;;;;6.80;96.58;102371.75;4998079;28;20018;-71
2022/09/21 04:21:54;;;;;;;30.92;9.68;;;;;;;6.82;98.01;102373.47;4994060;28;20422;-71
2022/09/21 04:24:21;;;;;;;19.00;8.75;;;;;;;7.07;97.24;102376.34;5004467;28;20045;-71
2022/09/21 04:26:46;;;;;;;15.90;8.23;;;;;;;7.19;95.95;102375.56;4992743;28;20118;-71
2022/09/21 04:29:12;;;;;;;21.10;7.05;;;;;;;7.19;95.20;102372.84;4992472;28;20066;-71
2022/09/21 04:31:38;;;;;;;20.80;8.20;;;;;;;7.20;94.71;102374.59;4992981;28;20022;-71
2022/09/21 04:34:08;;;;;;;16.38;7.72;;;;;;;7.29;94.13;102376.66;4992434;28;20026;-71
2022/09/21 04:36:33;;;;;;;21.98;8.63;;;;;;;7.21;93.22;102380.84;4997712;28;20533;-71
2022/09/21 04:39:02;;;;;;;24.77;9.40;;;;;;;7.19;93.44;102372.84;4992535;28;20066;-71
2022/09/21 04:41:28;;;;;;;26.73;10.05;;;;;;;7.14;93.22;102368.72;4990207;28;20045;-71
2022/09/21 04:43:53;;;;;;;23.48;8.63;;;;;;;7.10;93.31;102368.03;5002272;28;20483;-71
2022/09/21 04:46:19;;;;;;;26.75;9.68;;;;;;;7.13;93.17;102362.47;4999927;28;20022;-71
2022/09/21 04:48:45;;;;;;;21.13;8.52;;;;;;;7.11;92.70;102379.69;4993020;28;20026;-71
2022/09/21 04:51:13;;;;;;;20.88;8.45;;;;;;;7.07;92.78;102373.66;4999972;28;20407;-71
2022/09/21 04:53:43;;;;;;;20.65;8.05;;;;;;;7.01;92.66;102368.66;4997122;28;20030;-69
2022/09/21 04:56:11;;;;;;;17.58;8.85;;;;;;;6.94;92.82;102372.69;5001484;28;20018;-71
2022/09/21 04:58:37;;;;;;;24.50;9.57;;;;;;;6.95;93.09;102371.72;4992397;28;20105;-70
2022/09/21 05:01:04;;;;;;;19.52;8.90;;;;;;;6.96;92.81;102381.53;4996617;28;20053;-71
2022/09/21 05:03:31;;;;;;;23.23;9.68;;;;;;;6.96;92.67;102378.84;4992140;28;20109;-71
2022/09/21 05:05:57;;;;;;;20.42;7.80;;;;;;;6.77;92.39;102387.22;5001992;28;20033;-71
2022/09/21 05:11:14;;;;;;;25.33;13.20;;;;;;;6.55;92.33;102398.47;4992311;28;20058;-71
2022/09/21 05:13:41;;;;;;;32.42;16.27;;;;;;;6.56;93.06;102389.44;4996834;28;20080;-72
2022/09/21 05:16:06;;;;;;;71.85;43.78;;;;;;;6.66;92.80;102396.00;4995005;28;20026;-71
2022/09/21 05:18:32;;;;;;;70.10;43.20;;;;;;;6.73;92.67;102386.56;4993297;28;20042;-72
2022/09/21 05:20:59;;;;;;;33.97;16.52;;;;;;;6.71;92.49;102399.22;4994576;28;20045;-72
2022/09/21 05:23:26;;;;;;;38.55;19.85;;;;;;;6.76;92.50;102397.13;5008666;28;20505;-70
2022/09/21 05:25:51;;;;;;;30.00;17.50;;;;;;;6.70;92.10;102397.50;4996411;28;20037;-70
2022/09/21 05:28:18;;;;;;;27.48;12.02;;;;;;;6.68;92.38;102402.13;5007274;28;20022;-70
2022/09/21 05:30:52;;;;;;;20.83;10.40;;;;;;;6.64;92.51;102403.28;4998750;28;20022;-69
2022/09/21 05:33:20;;;;;;;21.73;10.18;;;;;;;6.56;93.12;102408.28;4997859;28;20034;-70
2022/09/21 05:36:17;;;;;;;31.08;11.40;;;;;;;6.76;93.90;102413.28;4999934;28;20423;-70
2022/09/21 05:38:42;;;;;;;24.65;9.45;;;;;;;6.87;93.50;102409.94;4990922;28;20062;-70
2022/09/21 05:41:08;;;;;;;24.55;10.55;;;;;;;6.90;92.90;102403.47;4997426;28;20087;-69
2022/09/21 05:43:34;;;;;;;21.15;10.95;;;;;;;6.92;92.92;102406.94;5000770;28;20037;-70
2022/09/21 05:46:07;;;;;;;21.27;9.10;;;;;;;6.97;93.37;102412.88;5000679;28;20022;-70
2022/09/21 05:48:40;;;;;;;25.48;9.40;;;;;;;6.90;93.54;102398.09;4993121;28;20041;-71
2022/09/21 05:51:31;;;;;;;28.85;9.65;;;;;;;7.07;94.35;102405.97;5000914;28;20026;-70
2022/09/21 05:53:56;;;;;;;17.23;9.48;;;;;;;7.07;93.91;102405.97;4991267;28;20413;-70
2022/09/21 05:56:40;;;;;;;20.30;10.30;;;;;;;7.13;93.40;102410.97;4993373;28;20022;-71
2022/09/21 05:59:18;;;;;;;20.35;9.02;;;;;;;7.12;93.61;102411.94;4996985;28;20069;-71
2022/09/21 06:02:08;;;;;;;23.70;10.20;;;;;;;7.17;93.91;102404.44;4998515;28;20022;-70
2022/09/21 06:04:34;;;;;;;18.52;8.63;;;;;;;7.37;93.76;102407.63;4992878;28;20029;-71
2022/09/21 06:06:59;;;;;;;17.45;7.82;;;;;;;7.43;92.89;102413.47;4994698;28;20399;-71
2022/09/21 06:09:25;;;;;;;14.13;7.20;;;;;;;7.39;93.11;102416.50;4999418;28;20014;-71
2022/09/21 06:11:51;;;;;;;17.13;9.73;;;;;;;7.43;93.94;102409.94;5004634;28;20025;-71
2022/09/21 06:14:23;;;;;;;20.63;8.40;;;;;;;7.58;93.90;102417.03;4990922;28;20078;-72
2022/09/21 06:16:49;;;;;;;13.77;7.15;;;;;;;7.63;93.40;102414.91;4988667;28;20077;-71
2022/09/21 06:19:15;;;;;;;12.93;7.43;;;;;;;7.51;94.37;102421.97;4995353;28;20026;-71
2022/09/21 06:21:40;;;;;;;17.90;9.80;;;;;;;7.44;95.04;102419.78;4989689;28;20041;-71
2022/09/21 06:24:06;;;;;;;18.63;10.13;;;;;;;7.42;96.43;102422.53;5050518;28;20032;-71
2022/09/21 06:26:32;;;;;;;26.17;10.18;;;;;;;7.56;97.74;102419.84;5053456;28;20108;-71
2022/09/21 06:28:57;;;;;;;16.20;9.68;;;;;;;7.67;98.81;102427.19;5057575;28;20021;-71
2022/09/21 06:31:23;;;;;;;15.18;8.82;;;;;;;7.80;98.45;102438.91;5061302;28;20040;-71
2022/09/21 06:33:48;;;;;;;19.45;10.68;;;;;;;8.02;98.21;102426.66;5059468;28;20055;-73
2022/09/21 06:36:14;;;;;;;18.13;10.27;;;;;;;8.02;98.95;102426.66;5063644;28;20044;-70
2022/09/21 06:38:39;;;;;;;21.95;11.05;;;;;;;8.14;98.45;102423.13;5073127;28;20020;-69
2022/09/21 06:41:04;;;;;;;22.75;11.63;;;;;;;8.25;98.95;102417.88;5059238;28;20086;-70
2022/09/21 06:43:31;;;;;;;20.95;11.35;;;;;;;8.48;97.87;102423.56;5056229;28;20028;-69
2022/09/21 06:45:59;;;;;;;18.10;9.98;;;;;;;8.63;97.56;102422.50;5064029;28;20047;-69
2022/09/21 06:48:26;;;;;;;26.00;12.43;;;;;;;8.74;98.45;102425.31;5054618;28;20021;-68
2022/09/21 06:50:56;;;;;;;28.52;12.13;;;;;;;8.79;98.84;102423.13;5053859;28;20546;-71
2022/09/21 06:53:22;;;;;;;25.58;13.45;;;;;;;9.20;99.42;102424.72;5043572;28;20165;-68
2022/09/21 06:55:47;;;;;;;24.95;11.77;;;;;;;9.22;99.63;102420.06;5045921;28;20107;-70
2022/09/21 06:58:12;;;;;;;24.90;12.35;;;;;;;9.35;99.24;102431.69;5064171;28;20024;-69
2022/09/21 07:00:38;;;;;;;29.58;14.88;;;;;;;9.65;98.74;102427.69;5046731;28;20021;-71
2022/09/21 07:03:03;;;;;;;27.63;12.05;;;;;;;9.70;97.03;102425.50;5067639;28;20111;-73
2022/09/21 07:05:28;;;;;;;25.40;12.20;;;;;;;9.74;97.83;102432.44;5058507;28;20064;-70
2022/09/21 07:07:57;;;;;;;20.65;12.45;;;;;;;9.88;97.05;102434.97;5050585;28;20485;-70
2022/09/21 07:10:24;;;;;;;30.23;12.88;;;;;;;9.93;97.73;102443.59;5047514;28;20016;-72
2022/09/21 07:12:51;;;;;;;19.75;11.88;;;;;;;10.02;94.63;102436.63;5055324;28;20029;-71
2022/09/21 07:15:18;;;;;;;23.40;11.00;;;;;;;10.01;95.00;102433.06;5040620;28;20048;-70
2022/09/21 07:17:43;;;;;;;26.80;11.52;;;;;;;10.09;95.05;102437.03;5049664;28;20024;-71
2022/09/21 07:20:10;;;;;;;28.27;11.63;;;;;;;10.26;96.11;102439.34;5046008;28;20081;-71
2022/09/21 07:22:35;;;;;;;24.77;11.57;;;;;;;10.44;95.00;102443.34;5051236;28;20025;-72
2022/09/21 07:25:01;;;;;;;22.60;11.27;;;;;;;10.56;94.74;102442.41;5068046;28;20050;-70
2022/09/21 07:27:29;;;;;;;25.45;11.18;;;;;;;10.74;93.44;102433.78;5047469;28;20035;-71
2022/09/21 07:29:54;;;;;;;20.92;11.52;;;;;;;10.87;93.98;102434.53;5047442;28;20040;-74
2022/09/21 07:32:20;;;;;;;20.65;11.48;;;;;;;11.37;93.44;102432.31;5046860;28;20646;-71
2022/09/21 07:34:45;;;;;;;22.05;12.07;;;;;;;11.14;92.81;102440.44;5047422;28;20043;-69
2022/09/21 07:37:11;;;;;;;31.13;12.10;;;;;;;11.54;92.95;102439.94;5055573;28;20073;-70
2022/09/21 07:39:37;;;;;;;24.35;12.23;;;;;;;11.68;91.02;102436.94;5050432;28;20027;-70
2022/09/21 07:42:04;;;;;;;16.30;10.95;;;;;;;11.84;90.62;102431.13;5055343;28;20028;-69
2022/09/21 07:44:29;;;;;;;20.20;11.57;;;;;;;12.09;90.00;102440.78;5049816;28;20035;-69
2022/09/21 07:46:55;;;;;;;29.63;10.23;;;;;;;12.44;87.86;102439.63;5057311;28;20123;-70
2022/09/21 07:49:20;;;;;;;19.05;10.13;;;;;;;12.45;87.01;102441.34;5055298;28;20021;-69
2022/09/21 07:51:45;;;;;;;25.55;10.40;;;;;;;12.86;86.64;102445.06;5047401;28;20020;-69
2022/09/21 07:54:12;;;;;;;24.88;10.18;;;;;;;12.62;85.20;102443.47;5055474;28;20037;-69
2022/09/21 07:56:37;;;;;;;22.98;10.32;;;;;;;12.84;85.56;102441.59;5050708;28;20063;-69
2022/09/21 07:59:07;;;;;;;22.38;10.82;;;;;;;12.62;86.02;102448.06;5048171;28;20400;-69
2022/09/21 08:01:34;;;;;;;14.32;8.57;;;;;;;12.84;85.24;102437.00;5053031;28;20477;-69
2022/09/21 08:04:01;;;;;;;18.75;9.02;;;;;;;12.85;84.30;102443.34;5056950;28;20029;-69
2022/09/21 08:06:29;;;;;;;20.50;8.77;;;;;;;13.03;84.31;102441.69;5047751;28;20103;-71
2022/09/21 08:08:55;;;;;;;14.30;7.63;;;;;;;13.21;83.90;102450.13;5050671;28;20024;-71
2022/09/21 08:11:21;;;;;;;14.45;8.27;;;;;;;13.22;83.70;102451.84;5051505;28;20013;-71
2022/09/21 08:13:48;;;;;;;25.25;8.25;;;;;;;13.39;82.76;102443.03;5048159;28;20473;-72
2022/09/21 08:16:13;;;;;;;17.00;8.77;;;;;;;13.34;83.47;102439.00;5047099;28;20017;-69
2022/09/21 08:18:40;;;;;;;12.90;6.55;;;;;;;13.75;81.70;102444.25;5044488;28;20036;-70
2022/09/21 08:21:08;;;;;;;15.88;7.57;;;;;;;13.93;80.00;102452.59;5052024;28;20032;-70
2022/09/21 08:23:33;;;;;;;17.17;7.15;;;;;;;13.82;80.70;102456.31;5048809;28;20026;-70
2022/09/21 08:25:59;;;;;;;16.77;7.18;;;;;;;13.92;81.31;102456.31;5053219;28;20531;-70
2022/09/21 08:28:26;;;;;;;15.52;7.32;;;;;;;13.87;80.86;102452.31;5049589;28;20025;-71
2022/09/21 08:30:51;;;;;;;16.10;7.03;;;;;;;14.01;81.03;102460.06;5048594;28;20071;-70
2022/09/21 08:33:17;;;;;;;17.15;6.60;;;;;;;14.59;78.88;102446.44;5058475;28;20480;-71
2022/09/21 08:35:42;;;;;;;13.05;6.22;;;;;;;14.60;77.88;102450.88;5051778;28;20412;-70
2022/09/21 08:38:07;;;;;;;12.88;6.00;;;;;;;14.45;77.46;102449.59;5048651;28;20025;-69
2022/09/21 08:40:34;;;;;;;13.73;5.70;;;;;;;14.59;77.48;102452.75;5049719;28;20028;-70
2022/09/21 08:43:09;;;;;;;13.25;5.72;;;;;;;14.64;77.33;102446.88;5050618;28;20021;-69
2022/09/21 08:45:43;;;;;;;12.02;5.35;;;;;;;14.82;76.87;102456.03;5051934;28;20114;-71
2022/09/21 08:48:15;;;;;;;11.85;4.40;;;;;;;15.19;74.96;102452.44;5049774;28;20032;-72
2022/09/21 08:50:47;;;;;;;;;;;;;;;15.42;72.52;102453.78;5053298;28;20104;-72
2022/09/21 08:53:21;;;;;;;;;;;;;;;15.39;73.52;102454.09;5048930;28;19912;-70
2022/09/21 08:55:46;;;;;;;11.73;4.70;;;;;;;15.51;72.15;102456.59;5047574;28;19914;-70
2022/09/21 08:58:24;;;;;;;12.20;4.93;;;;;;;15.68;72.09;102453.09;5058119;28;20016;-71
2022/09/21 09:01:18;;;;;;;12.55;5.35;;;;;;;15.78;72.01;102453.91;5052507;28;20065;-73
2022/09/21 09:03:50;;;;;;;11.30;4.75;;;;;;;15.81;70.92;102461.78;5006997;28;20036;-72
2022/09/21 09:06:18;;;;;;;12.05;4.75;;;;;;;15.81;70.43;102459.03;5047050;28;20024;-71
2022/09/21 09:09:03;;;;;;;7.68;4.18;;;;;;;15.78;70.41;102464.84;5049641;28;20110;-72
2022/09/21 09:11:44;;;;;;;11.75;5.25;;;;;;;15.88;69.87;102462.88;5043679;28;20419;-71
2022/09/21 09:14:23;;;;;;;10.82;3.83;;;;;;;16.17;68.66;102459.06;5047943;28;20036;-71
2022/09/21 09:17:36;;;;;;;5.50;3.42;;;;;;;16.12;69.58;102458.69;5051987;28;20115;-71
2022/09/21 09:20:22;;;;;;;8.52;3.72;;;;;;;16.47;67.67;102466.00;4967017;28;20040;-71
2022/09/21 09:23:03;;;;;;;7.85;4.00;;;;;;;16.56;67.22;102465.03;5038710;28;20089;-71
2022/09/21 09:25:35;;;;;;;8.80;3.10;;;;;;;16.60;66.86;102466.44;5074559;28;20122;-72
2022/09/21 09:28:12;;;;;;;6.18;3.60;;;;;;;16.87;65.43;102462.75;5048690;28;20064;-71
2022/09/21 09:30:38;;;;;;;10.30;3.28;;;;;;;16.58;66.26;102467.63;5049034;28;20016;-71
2022/09/21 09:33:21;;;;;;;9.70;3.90;;;;;;;16.98;65.60;102470.69;5049792;28;20377;-71
2022/09/21 09:36:03;;;;;;;7.95;3.15;;;;;;;17.03;64.13;102460.13;5048412;28;20016;-71
2022/09/21 09:38:54;;;;;;;8.70;3.05;;;;;;;17.12;63.11;102465.63;5046124;28;20020;-71
2022/09/21 09:41:49;;;;;;;8.93;2.95;;;;;;;17.31;63.52;102465.41;5047196;28;20024;-73
2022/09/21 09:44:33;;;;;;;12.32;2.50;;;;;;;17.70;62.53;102464.88;5053414;28;20032;-71
2022/09/21 09:47:18;;;;;;;4.28;2.05;;;;;;;17.88;60.67;102463.78;5052058;28;20127;-71
2022/09/21 09:50:05;;;;;;;3.20;1.75;;;;;;;17.74;59.24;102466.31;5048407;28;20202;-72
2022/09/21 09:52:34;;;;;;;6.85;1.77;;;;;;;17.80;59.33;102466.50;5054371;28;20025;-73
2022/09/21 09:55:10;;;;;;;4.57;1.95;;;;;;;18.13;56.22;102461.94;5054709;28;20028;-72
2022/09/21 09:57:36;;;;;;;3.88;1.80;;;;;;;18.27;55.35;102465.03;5053194;28;20158;-73
2022/09/21 10:00:08;;;;;;;8.63;1.67;;;;;;;18.52;55.38;102461.28;5054037;28;20123;-71
2022/09/21 10:02:45;;;;;;;6.80;2.08;;;;;;;18.40;56.83;102459.91;5046773;28;20024;-72
2022/09/21 10:05:23;;;;;;;6.25;3.35;;;;;;;18.28;56.78;102464.00;5054896;28;20020;-73
2022/09/21 10:07:52;;;;;;;7.10;2.90;;;;;;;18.11;57.56;102463.97;5046230;28;20132;-73
2022/09/21 10:10:36;;;;;;;5.22;1.95;;;;;;;18.36;57.22;102464.00;5057907;28;20024;-72
2022/09/21 10:13:20;;;;;;;11.15;2.45;;;;;;;18.24;58.02;102462.63;5048185;28;20020;-72
2022/09/21 10:16:20;;;;;;;6.90;2.70;;;;;;;18.73;56.26;102457.19;5050915;28;20054;-71
2022/09/21 10:18:55;;;;;;;4.68;1.98;;;;;;;18.72;55.14;102466.44;4999603;28;20072;-71
2022/09/21 10:21:34;;;;;;;3.55;1.50;;;;;;;18.50;54.50;102456.97;5047990;28;20035;-73
2022/09/21 10:24:03;;;;;;;2.92;1.27;;;;;;;18.57;54.95;102453.38;5046559;28;20048;-71
2022/09/21 10:26:39;;;;;;;3.17;1.08;;;;;;;19.15;50.03;102460.50;5045896;28;20161;-73
2022/09/21 10:29:24;;;;;;;2.17;1.42;;;;;;;19.36;49.41;102456.31;5046757;28;20030;-72
2022/09/21 10:31:55;;;;;;;6.10;1.60;;;;;;;19.19;50.68;102453.63;5052363;28;20021;-71
2022/09/21 10:34:22;;;;;;;3.85;1.60;;;;;;;19.02;51.88;102457.44;5042133;28;20028;-71
2022/09/21 10:36:54;;;;;;;11.88;1.90;;;;;;;18.51;53.49;102456.78;5050517;28;20107;-74
2022/09/21 10:39:23;;;;;;;2.88;1.50;;;;;;;18.58;52.33;102449.63;5052310;28;20020;-72
2022/09/21 10:42:00;;;;;;;3.70;1.30;;;;;;;18.92;50.96;102446.69;5047542;28;20032;-73
2022/09/21 10:44:33;;;;;;;2.85;1.30;;;;;;;19.17;51.68;102441.97;5046776;28;20084;-72
2022/09/21 10:47:11;;;;;;;6.20;1.50;;;;;;;18.76;51.68;102445.84;5054131;28;20725;-72
2022/09/21 10:49:46;;;;;;;2.78;1.42;;;;;;;18.22;52.65;102442.75;5050348;28;20082;-72
2022/09/21 10:52:12;;;;;;;2.95;1.40;;;;;;;18.56;52.21;102437.94;5054109;28;20023;-72
2022/09/21 10:54:40;;;;;;;3.95;1.58;;;;;;;18.45;50.24;102438.28;5051164;28;20079;-72
2022/09/21 10:57:09;;;;;;;3.67;1.20;;;;;;;18.41;51.81;102436.94;5048657;28;20388;-72
2022/09/21 10:59:36;;;;;;;4.53;1.10;;;;;;;18.78;50.11;102436.41;5054315;28;20024;-72
2022/09/21 11:02:30;;;;;;;2.13;1.02;;;;;;;19.52;49.37;102437.03;5050375;28;20017;-73
2022/09/21 11:05:36;;;;;;;2.40;1.42;;;;;;;20.03;47.42;102434.69;5053439;28;20024;-73
2022/09/21 11:08:10;;;;;;;4.00;1.15;;;;;;;19.23;46.81;102427.53;5048606;28;20090;-73
2022/09/21 11:10:41;;;;;;;1.77;0.98;;;;;;;19.16;45.88;102433.88;5072587;28;20465;-73
2022/09/21 11:13:29;;;;;;;5.72;0.77;;;;;;;18.88;44.73;102433.47;5051665;28;20044;-73
2022/09/21 11:16:13;;;;;;;4.60;0.68;;;;;;;18.85;44.91;102436.56;5065410;28;20028;-73
2022/09/21 11:19:06;;;;;;;4.05;1.30;;;;;;;18.30;46.02;102440.00;5046833;28;20028;-72
2022/09/21 11:21:45;;;;;;;3.00;0.77;;;;;;;19.36;45.51;102434.34;5054165;28;20031;-72
2022/09/21 11:24:29;;;;;;;1.52;0.90;;;;;;;19.37;44.57;102439.66;5052246;28;20012;-73
2022/09/21 11:27:02;;;;;;;1.70;1.00;;;;;;;19.65;43.73;102437.31;5065724;28;20078;-74
2022/09/21 11:29:31;;;;;;;2.08;0.80;;;;;;;20.45;43.17;102427.84;5051237;28;20032;-72
2022/09/21 11:32:22;;;;;;;4.13;1.20;;;;;;;20.28;42.99;102427.97;5051049;28;20103;-72
2022/09/21 11:34:57;;;;;;;3.03;1.13;;;;;;;19.61;44.96;102430.47;5064370;28;20028;-74
2022/09/21 11:37:34;;;;;;;2.30;1.20;;;;;;;19.96;44.59;102433.72;5053200;28;20021;-73
2022/09/21 11:40:09;;;;;;;2.20;1.05;;;;;;;20.43;43.10;102435.41;5055684;28;20036;-72
2022/09/21 11:42:50;;;;;;;2.08;1.02;;;;;;;20.91;42.42;102433.25;5049874;28;20498;-72
2022/09/21 11:45:31;;;;;;;3.78;1.17;;;;;;;21.14;41.55;102431.28;5070816;28;20028;-73
2022/09/21 11:48:13;;;;;;;5.28;1.08;;;;;;;21.70;41.36;102428.84;5048353;28;20024;-74